Bremen — C6JC3 — position and weather

sailwx.info

Track history (hours):
 
Tides and Currents Weather Stations Pressure Air Temp Water Temp Dewpoint Dewpoint Depression Visibility Wind Speed Wind Dir Waves Ship Positions

Bremen

Operator: Hapag-Lloyd Container Line

Last reported at 2015-Jun-27 00:33 UTC. Time now 2015-Jul-07 08:54 UTC.
Position N 69°46' E 019°08'.
Warning: this ship's position is 10 days out of date.

Length 111.5 m; beam 17 m; draft 4.8 m.

Type: Ship. MMSI: 308429000.

Date/timePositionNaut miles runAvg speedWind from/ knotsBaromVisibWave heightAir tempDewpointWater temp
2015-Jun-27 00:33N 69°46' E 019°08'1212.2
2015-Jun-26 23:33N 69°35' E 018°51'205 4.2
2015-Jun-24 22:29N 66°52' E 013°20'1915.1
2015-Jun-24 21:15N 66°34' E 013°05'4 5.8
2015-Jun-24 20:33N 66°31' E 012°57'1413.5
2015-Jun-24 19:33N 66°18' E 012°56'5713.4
2015-Jun-24 15:15N 65°24' E 012°08'5 7.5
2015-Jun-24 14:33N 65°20' E 012°01'1312.7
2015-Jun-24 13:33N 65°08' E 011°50'1212.0
2015-Jun-24 12:34N 64°58' E 011°34'1211.9
2015-Jun-24 11:33N 64°51' E 011°12'1312.6
2015-Jun-24 10:33N 64°42' E 010°51'4011.4
2015-Jun-24 07:03N 64°07' E 010°04'612.5
2015-Jun-24 06:33N 64°04' E 009°52'1111.3
2015-Jun-24 05:33N 63°53' E 009°45'1211.7
2015-Jun-24 04:33N 63°43' E 009°31'1712.7
2015-Jun-24 03:11N 63°30' E 009°05'4114.0
2015-Jun-24 00:14N 63°10' E 007°45'  
2015-Jun-17 22:33N 64°12' W 021°57'4 0.2
2015-Jun-17 06:33N 64°09' W 021°51'  
Track history (hours):
 
Tides and Currents Weather Stations Pressure Air Temp Water Temp Dewpoint Dewpoint Depression Visibility Wind Speed Wind Dir Waves Ship Positions

Bremen

Operator: Hapag-Lloyd Container Line

Last reported at 2015-Jun-27 00:33 UTC. Time now 2015-Jul-07 08:54 UTC.
Position N 69°46' E 019°08'.
Warning: this ship's position is 10 days out of date.

Length 111.5 m; beam 17 m; draft 4.8 m.

Type: Ship. MMSI: 308429000.

Date/timePositionNaut miles runAvg speedWind from/ knotsBaromVisibWave heightAir tempDewpointWater temp
2015-Jun-27 00:33N 69°46' E 019°08'1212.2
2015-Jun-26 23:33N 69°35' E 018°51'205 4.2
2015-Jun-24 22:29N 66°52' E 013°20'1915.1
2015-Jun-24 21:15N 66°34' E 013°05'4 5.8
2015-Jun-24 20:33N 66°31' E 012°57'1413.5
2015-Jun-24 19:33N 66°18' E 012°56'5713.4
2015-Jun-24 15:15N 65°24' E 012°08'5 7.5
2015-Jun-24 14:33N 65°20' E 012°01'1312.7
2015-Jun-24 13:33N 65°08' E 011°50'1212.0
2015-Jun-24 12:34N 64°58' E 011°34'1211.9
2015-Jun-24 11:33N 64°51' E 011°12'1312.6
2015-Jun-24 10:33N 64°42' E 010°51'4011.4
2015-Jun-24 07:03N 64°07' E 010°04'612.5
2015-Jun-24 06:33N 64°04' E 009°52'1111.3
2015-Jun-24 05:33N 63°53' E 009°45'1211.7
2015-Jun-24 04:33N 63°43' E 009°31'1712.7
2015-Jun-24 03:11N 63°30' E 009°05'4114.0
2015-Jun-24 00:14N 63°10' E 007°45'  
2015-Jun-17 22:33N 64°12' W 021°57'4 0.2
2015-Jun-17 06:33N 64°09' W 021°51'  

Dump ship's entire track history